createdAt,value
2019-05-23T00:00:50.645Z,16.00
2019-05-23T00:03:38.279Z,16.00
2019-05-23T00:06:15.474Z,16.00
2019-05-23T00:08:47.229Z,16.00
2019-05-23T00:11:30.554Z,16.00
2019-05-23T00:14:06.085Z,16.10
2019-05-23T00:16:36.798Z,16.20
2019-05-23T00:19:08.165Z,16.10
2019-05-23T00:21:39.365Z,16.10
2019-05-23T00:24:10.962Z,16.00
2019-05-23T00:26:41.433Z,16.00
2019-05-23T00:29:12.420Z,15.90
2019-05-23T00:31:49.513Z,15.90
2019-05-23T00:34:19.150Z,15.90
2019-05-23T00:36:49.700Z,15.80
2019-05-23T00:39:20.552Z,15.90
2019-05-23T00:41:50.846Z,16.10
2019-05-23T00:44:20.999Z,16.10
2019-05-23T00:46:51.170Z,15.90
2019-05-23T00:49:22.298Z,15.90
2019-05-23T00:51:53.066Z,15.80
2019-05-23T00:54:23.093Z,15.80
2019-05-23T00:56:54.919Z,15.80
2019-05-23T00:59:27.452Z,15.80
2019-05-23T01:01:58.146Z,15.90
2019-05-23T01:04:28.333Z,16.00
2019-05-23T01:06:58.556Z,15.90
2019-05-23T01:09:28.748Z,15.80
2019-05-23T01:11:58.500Z,15.80
2019-05-23T01:14:28.874Z,15.90
2019-05-23T01:16:59.115Z,15.80
2019-05-23T01:19:29.184Z,15.80
2019-05-23T01:22:03.082Z,15.80
2019-05-23T01:24:34.913Z,15.80
2019-05-23T01:27:06.062Z,15.80
2019-05-23T01:29:50.051Z,15.80
2019-05-23T01:32:23.727Z,15.90
2019-05-23T01:34:54.056Z,15.90
2019-05-23T01:37:24.591Z,15.80
2019-05-23T01:39:54.197Z,15.80
2019-05-23T01:42:24.449Z,15.90
2019-05-23T01:44:55.963Z,16.00
2019-05-23T01:47:27.823Z,15.90
2019-05-23T01:49:58.235Z,15.80
2019-05-23T01:52:28.948Z,15.80
2019-05-23T01:54:59.581Z,15.70
2019-05-23T01:57:32.013Z,15.70
2019-05-23T02:00:10.030Z,15.60
2019-05-23T02:02:37.916Z,15.60
2019-05-23T02:05:10.193Z,15.60
2019-05-23T02:07:40.538Z,15.60
2019-05-23T02:10:12.710Z,15.60
2019-05-23T02:12:42.613Z,15.50
2019-05-23T02:15:12.907Z,15.60
2019-05-23T02:17:42.476Z,15.50
2019-05-23T02:20:14.352Z,15.50
2019-05-23T02:22:45.016Z,15.50
2019-05-23T02:25:17.001Z,15.50
2019-05-23T02:27:48.571Z,15.60
2019-05-23T02:30:33.888Z,15.60
2019-05-23T02:32:54.150Z,15.50
2019-05-23T02:35:23.760Z,15.60
2019-05-23T02:37:55.226Z,15.30
2019-05-23T02:40:43.050Z,15.40
2019-05-23T02:43:17.391Z,15.50
2019-05-23T02:45:53.697Z,15.30
2019-05-23T02:48:25.422Z,15.50
2019-05-23T02:51:08.942Z,15.40
2019-05-23T02:53:39.749Z,15.40
2019-05-23T02:56:14.401Z,15.50
2019-05-23T02:59:13.563Z,15.40
2019-05-23T03:02:16.662Z,15.40
2019-05-23T03:04:47.881Z,15.40
2019-05-23T03:07:20.318Z,15.40
2019-05-23T03:09:51.881Z,15.40
2019-05-23T03:12:25.142Z,15.20
2019-05-23T03:14:53.669Z,15.30
2019-05-23T03:17:27.125Z,15.20
2019-05-23T03:20:03.021Z,15.20
2019-05-23T03:22:42.038Z,15.30
2019-05-23T03:25:39.085Z,15.10
2019-05-23T03:28:15.344Z,15.20
2019-05-23T03:30:52.219Z,15.20
2019-05-23T03:33:22.284Z,15.20
2019-05-23T03:35:56.443Z,15.20
2019-05-23T03:38:27.997Z,15.20
2019-05-23T03:40:58.298Z,15.20
2019-05-23T03:43:29.204Z,15.00
2019-05-23T03:46:07.871Z,15.10
2019-05-23T03:48:38.647Z,15.10
2019-05-23T03:51:10.271Z,15.20
2019-05-23T03:53:42.600Z,15.10
2019-05-23T03:56:13.602Z,15.30
2019-05-23T03:58:43.402Z,15.30
2019-05-23T04:01:14.895Z,15.30
2019-05-23T04:03:45.070Z,15.20
2019-05-23T04:06:15.540Z,15.20
2019-05-23T04:08:45.483Z,15.10
2019-05-23T04:11:15.363Z,15.30
2019-05-23T04:13:45.177Z,15.40
2019-05-23T04:16:14.918Z,15.10
2019-05-23T04:18:44.544Z,15.00
2019-05-23T04:21:14.519Z,14.70
2019-05-23T04:23:44.238Z,14.80
2019-05-23T04:26:14.861Z,14.90
2019-05-23T04:28:44.922Z,14.80
2019-05-23T04:31:14.569Z,14.80
2019-05-23T04:33:44.863Z,14.70
2019-05-23T04:36:14.567Z,14.80
2019-05-23T04:38:44.531Z,14.70
2019-05-23T04:41:14.611Z,14.70
2019-05-23T04:43:44.248Z,14.70
2019-05-23T04:46:15.439Z,14.80
2019-05-23T04:48:45.325Z,14.80
2019-05-23T04:51:15.216Z,14.80
2019-05-23T04:53:44.977Z,14.90
2019-05-23T04:56:14.832Z,14.90
2019-05-23T04:58:45.681Z,14.90
2019-05-23T05:01:16.829Z,15.00
2019-05-23T05:03:47.085Z,14.90
2019-05-23T05:06:16.711Z,14.60
2019-05-23T05:08:47.060Z,14.70
2019-05-23T05:11:17.823Z,14.60
2019-05-23T05:13:47.947Z,14.80
2019-05-23T05:16:18.012Z,14.80
2019-05-23T05:18:47.996Z,14.90
2019-05-23T05:21:18.031Z,15.00
2019-05-23T05:23:48.070Z,14.80
2019-05-23T05:26:24.102Z,14.80
2019-05-23T05:28:54.033Z,14.70
2019-05-23T05:31:24.916Z,14.90
2019-05-23T05:33:54.705Z,15.00
2019-05-23T05:36:25.017Z,15.10
2019-05-23T05:38:58.145Z,15.00
2019-05-23T05:41:28.340Z,14.90
2019-05-23T05:43:58.236Z,15.00
2019-05-23T05:46:28.384Z,15.00
2019-05-23T05:48:59.784Z,15.10
2019-05-23T05:51:31.026Z,14.90
2019-05-23T05:54:01.377Z,14.90
2019-05-23T05:56:31.061Z,14.80
2019-05-23T05:59:00.873Z,14.80
2019-05-23T06:01:34.337Z,14.90
2019-05-23T06:04:03.310Z,14.90
2019-05-23T06:06:34.675Z,14.80
2019-05-23T06:09:16.044Z,14.70
2019-05-23T06:11:45.869Z,14.80
2019-05-23T06:14:16.032Z,14.80
2019-05-23T06:16:46.610Z,14.70
2019-05-23T06:19:16.626Z,14.80
2019-05-23T06:21:46.724Z,14.70
2019-05-23T06:24:16.778Z,14.80
2019-05-23T06:26:47.059Z,14.90
2019-05-23T06:29:16.953Z,14.80
2019-05-23T06:31:46.843Z,14.80
2019-05-23T06:34:16.705Z,14.70
2019-05-23T06:36:47.254Z,14.80
2019-05-23T06:39:17.639Z,14.80
2019-05-23T06:41:47.489Z,14.80
2019-05-23T06:44:18.889Z,14.80
2019-05-23T06:46:49.015Z,14.90
2019-05-23T06:49:18.752Z,14.80
2019-05-23T06:51:48.363Z,14.70
2019-05-23T06:54:18.004Z,14.70
2019-05-23T06:56:47.936Z,14.80
2019-05-23T06:59:17.638Z,14.90
2019-05-23T07:01:47.336Z,14.80
2019-05-23T07:04:18.912Z,14.80
2019-05-23T07:06:48.897Z,14.80
2019-05-23T07:09:20.001Z,15.00
2019-05-23T07:11:51.740Z,15.00
2019-05-23T07:14:21.439Z,15.00
2019-05-23T07:16:50.974Z,15.00
2019-05-23T07:19:21.515Z,14.80
2019-05-23T07:21:51.492Z,14.90
2019-05-23T07:24:21.117Z,15.00
2019-05-23T07:26:51.088Z,15.00
2019-05-23T07:29:21.375Z,15.00
2019-05-23T07:31:51.161Z,14.90
2019-05-23T07:34:21.525Z,14.70
2019-05-23T07:36:51.461Z,15.00
2019-05-23T07:39:21.449Z,14.80
2019-05-23T07:41:52.556Z,14.80
2019-05-23T07:44:22.533Z,14.80
2019-05-23T07:46:52.605Z,14.80
2019-05-23T07:49:22.472Z,15.00
2019-05-23T07:51:52.681Z,15.20
2019-05-23T07:54:24.089Z,15.30
2019-05-23T07:56:54.315Z,15.30
2019-05-23T07:59:24.318Z,15.30
2019-05-23T08:02:09.961Z,14.90
2019-05-23T08:04:39.800Z,14.90
2019-05-23T08:07:11.479Z,14.80
2019-05-23T08:09:41.558Z,14.70
2019-05-23T08:12:11.161Z,14.70
2019-05-23T08:14:40.947Z,14.80
2019-05-23T08:17:11.291Z,14.90
2019-05-23T08:19:49.546Z,14.90
2019-05-23T08:22:12.772Z,15.00
2019-05-23T08:24:42.908Z,14.90
2019-05-23T08:27:13.381Z,14.90
2019-05-23T08:29:43.363Z,15.00
2019-05-23T08:32:13.250Z,15.10
2019-05-23T08:34:43.462Z,15.20
2019-05-23T08:37:14.224Z,15.00
2019-05-23T08:39:44.628Z,14.80
2019-05-23T08:42:14.665Z,14.70
2019-05-23T08:44:44.886Z,14.70
2019-05-23T08:47:15.406Z,14.80
2019-05-23T08:49:45.021Z,14.80
2019-05-23T08:52:14.998Z,14.90
2019-05-23T08:54:45.812Z,14.80
2019-05-23T08:57:16.937Z,14.80
2019-05-23T08:59:46.551Z,14.70
2019-05-23T09:02:16.474Z,15.00
2019-05-23T09:05:03.376Z,15.20
2019-05-23T09:07:18.290Z,15.20
2019-05-23T09:09:48.889Z,15.40
2019-05-23T09:12:19.183Z,15.50
2019-05-23T09:14:49.351Z,15.70
2019-05-23T09:17:19.418Z,15.30
2019-05-23T09:19:48.936Z,15.60
2019-05-23T09:22:18.822Z,15.60
2019-05-23T09:24:48.489Z,15.40
2019-05-23T09:27:18.112Z,15.20
2019-05-23T09:29:47.836Z,15.30
2019-05-23T09:32:18.611Z,15.10
2019-05-23T09:34:48.211Z,15.10
2019-05-23T09:37:18.388Z,15.00
2019-05-23T09:39:49.490Z,15.20
2019-05-23T09:42:19.110Z,15.00
2019-05-23T09:44:49.097Z,14.90
2019-05-23T09:47:18.752Z,14.60
2019-05-23T09:49:55.868Z,14.80
2019-05-23T09:52:21.807Z,15.00
2019-05-23T09:54:51.548Z,14.80
2019-05-23T09:57:21.865Z,14.70
2019-05-23T09:59:51.787Z,14.80
2019-05-23T10:02:21.435Z,14.90
2019-05-23T10:04:52.143Z,14.90
2019-05-23T10:07:22.104Z,15.00
2019-05-23T10:09:51.774Z,15.00
2019-05-23T10:12:22.653Z,14.70
2019-05-23T10:14:52.530Z,14.80
2019-05-23T10:17:22.454Z,14.90
2019-05-23T10:19:52.482Z,15.00
2019-05-23T10:22:22.361Z,14.70
2019-05-23T10:24:52.098Z,14.80
2019-05-23T10:27:21.992Z,15.10
2019-05-23T10:29:51.642Z,15.40
2019-05-23T10:32:21.669Z,15.30
2019-05-23T10:34:51.201Z,15.70
2019-05-23T10:37:21.177Z,15.50
2019-05-23T10:39:55.272Z,15.40
2019-05-23T10:42:27.861Z,15.10
2019-05-23T10:44:57.553Z,15.40
2019-05-23T10:47:27.619Z,15.30
2019-05-23T10:49:57.404Z,15.20
2019-05-23T10:52:27.215Z,15.10
2019-05-23T10:54:56.908Z,15.50
2019-05-23T10:57:26.869Z,15.60
2019-05-23T10:59:56.987Z,15.70
2019-05-23T11:02:27.332Z,15.80
2019-05-23T11:04:57.423Z,16.10
2019-05-23T11:07:27.550Z,16.40
2019-05-23T11:09:57.204Z,16.40
2019-05-23T11:12:27.883Z,16.20
2019-05-23T11:14:58.069Z,16.20
2019-05-23T11:17:27.714Z,16.20
2019-05-23T11:19:57.404Z,16.20
2019-05-23T11:22:27.043Z,16.10
2019-05-23T11:24:56.985Z,15.90
2019-05-23T11:27:26.867Z,15.80
2019-05-23T11:29:56.646Z,15.50
2019-05-23T11:32:26.649Z,15.30
2019-05-23T11:34:56.275Z,15.20
2019-05-23T11:37:25.974Z,14.90
2019-05-23T11:39:55.844Z,15.20
2019-05-23T11:42:25.736Z,15.40
2019-05-23T11:44:55.362Z,15.50
2019-05-23T11:47:31.021Z,15.80
2019-05-23T11:49:58.219Z,16.20
2019-05-23T11:52:28.199Z,16.20
2019-05-23T11:54:57.939Z,16.10
2019-05-23T11:57:27.565Z,16.30
2019-05-23T11:59:57.655Z,15.90
2019-05-23T12:02:27.032Z,16.10
2019-05-23T12:04:58.571Z,16.30
2019-05-23T12:07:29.912Z,16.00
2019-05-23T12:09:59.587Z,16.00
2019-05-23T12:12:29.437Z,16.20
2019-05-23T12:14:59.122Z,16.50
2019-05-23T12:17:31.095Z,16.10
2019-05-23T12:20:00.723Z,16.30
2019-05-23T12:22:30.603Z,15.90
2019-05-23T12:25:18.270Z,15.70
2019-05-23T12:27:32.012Z,15.50
2019-05-23T12:30:01.787Z,15.70
2019-05-23T12:32:31.460Z,15.70
2019-05-23T12:35:10.478Z,15.90
2019-05-23T12:37:32.577Z,16.20
2019-05-23T12:40:03.120Z,16.20
2019-05-23T12:42:32.826Z,15.80
2019-05-23T12:45:03.492Z,16.00
2019-05-23T12:47:34.782Z,15.70
2019-05-23T12:50:10.421Z,15.70
2019-05-23T12:52:40.133Z,15.60
2019-05-23T12:55:10.654Z,15.50
2019-05-23T12:57:40.637Z,15.60
2019-05-23T13:00:12.972Z,15.60
2019-05-23T13:02:42.936Z,15.50
2019-05-23T13:05:13.009Z,15.60
2019-05-23T13:07:43.041Z,15.60
2019-05-23T13:10:12.899Z,15.50
2019-05-23T13:12:42.875Z,15.50
2019-05-23T13:15:14.515Z,15.50
2019-05-23T13:17:44.348Z,15.40
2019-05-23T13:20:14.612Z,15.40
2019-05-23T13:22:44.617Z,15.40
2019-05-23T13:25:15.716Z,15.60
2019-05-23T13:27:45.381Z,15.60
2019-05-23T13:30:17.134Z,15.70
2019-05-23T13:32:47.611Z,15.60
2019-05-23T13:35:17.379Z,15.70
2019-05-23T13:37:53.500Z,15.60
2019-05-23T13:40:19.073Z,15.70
2019-05-23T13:42:49.036Z,15.90
2019-05-23T13:45:19.452Z,15.90
2019-05-23T13:47:49.340Z,15.90
2019-05-23T13:50:20.206Z,16.10
2019-05-23T13:52:50.672Z,16.00
2019-05-23T13:55:40.277Z,16.10
2019-05-23T13:58:11.904Z,15.90
2019-05-23T14:00:43.230Z,15.90
2019-05-23T14:03:13.157Z,15.80
2019-05-23T14:05:43.248Z,15.50
2019-05-23T14:08:14.526Z,15.70
2019-05-23T14:11:03.570Z,15.70
2019-05-23T14:13:34.012Z,15.80
2019-05-23T14:16:05.947Z,15.70
2019-05-23T14:18:36.700Z,15.80
2019-05-23T14:21:06.982Z,15.90
2019-05-23T14:23:36.764Z,16.00
2019-05-23T14:26:06.827Z,16.20
2019-05-23T14:28:36.604Z,16.30
2019-05-23T14:31:17.491Z,16.10
2019-05-23T14:33:51.589Z,15.90
2019-05-23T14:36:33.086Z,15.80
2019-05-23T14:39:04.555Z,15.50
2019-05-23T14:41:45.128Z,15.50
2019-05-23T14:44:14.992Z,15.30
2019-05-23T14:47:03.397Z,15.40
2019-05-23T14:49:38.042Z,15.40
2019-05-23T14:52:27.671Z,15.60
2019-05-23T14:54:58.964Z,15.80
2019-05-23T14:57:28.659Z,15.70
2019-05-23T14:59:58.617Z,15.90
2019-05-23T15:02:29.389Z,15.70
2019-05-23T15:04:59.977Z,15.50
2019-05-23T15:07:30.493Z,15.40
2019-05-23T15:10:00.217Z,15.20
2019-05-23T15:12:29.934Z,15.30
2019-05-23T15:15:00.304Z,15.30
2019-05-23T15:17:31.071Z,15.50
2019-05-23T15:20:00.845Z,15.60
2019-05-23T15:22:31.477Z,15.60
2019-05-23T15:25:01.271Z,15.90
2019-05-23T15:27:33.212Z,15.80
2019-05-23T15:30:02.628Z,15.70
2019-05-23T15:32:32.653Z,15.80
2019-05-23T15:35:02.813Z,15.90
2019-05-23T15:37:33.410Z,15.50
2019-05-23T15:40:03.412Z,15.60
2019-05-23T15:42:33.734Z,15.90
2019-05-23T15:45:04.043Z,16.10
2019-05-23T15:47:35.541Z,16.00
2019-05-23T15:50:11.480Z,16.20
2019-05-23T15:52:40.989Z,16.60
2019-05-23T15:55:22.029Z,17.00
2019-05-23T15:57:53.526Z,16.80
2019-05-23T16:00:41.311Z,16.60
2019-05-23T16:03:13.897Z,16.30
2019-05-23T16:05:44.016Z,16.40
2019-05-23T16:08:14.426Z,16.60
2019-05-23T16:10:44.603Z,16.00
2019-05-23T16:13:14.753Z,16.20
2019-05-23T16:15:45.540Z,16.10
2019-05-23T16:18:15.305Z,16.10
2019-05-23T16:20:45.795Z,16.30
2019-05-23T16:23:15.846Z,16.50
2019-05-23T16:25:45.470Z,16.50
2019-05-23T16:28:15.384Z,16.30
2019-05-23T16:30:45.274Z,16.00
2019-05-23T16:33:15.128Z,15.80
2019-05-23T16:35:44.842Z,16.20
2019-05-23T16:38:14.746Z,16.20
2019-05-23T16:40:45.213Z,16.20
2019-05-23T16:43:15.507Z,16.00
2019-05-23T16:45:45.543Z,16.10
2019-05-23T16:48:15.530Z,15.80
2019-05-23T16:50:45.611Z,15.90
2019-05-23T16:53:15.957Z,15.90
2019-05-23T16:55:48.616Z,15.70
2019-05-23T16:58:35.403Z,15.60
2019-05-23T17:01:23.317Z,15.60
2019-05-23T17:03:45.149Z,15.50
2019-05-23T17:06:29.844Z,15.30
2019-05-23T17:09:14.694Z,15.40
2019-05-23T17:11:46.470Z,15.50
2019-05-23T17:14:17.805Z,15.40
2019-05-23T17:16:54.871Z,15.50
2019-05-23T17:19:39.758Z,15.40
2019-05-23T17:22:11.436Z,15.50
2019-05-23T17:24:45.748Z,15.50
2019-05-23T17:27:23.410Z,15.50
2019-05-23T17:29:54.741Z,15.20
2019-05-23T17:32:26.148Z,15.30
2019-05-23T17:34:56.778Z,15.30
2019-05-23T17:37:26.699Z,15.30
2019-05-23T17:39:56.980Z,15.30
2019-05-23T17:42:27.736Z,15.30
2019-05-23T17:44:57.724Z,15.30
2019-05-23T17:47:28.825Z,15.40
2019-05-23T17:49:58.708Z,15.40
2019-05-23T17:52:28.470Z,15.50
2019-05-23T17:54:58.357Z,15.40
2019-05-23T17:57:29.129Z,15.30
2019-05-23T17:59:59.110Z,15.20
2019-05-23T18:02:29.287Z,15.20
2019-05-23T18:04:59.110Z,15.00
2019-05-23T18:07:28.838Z,15.10
2019-05-23T18:09:58.869Z,15.20
2019-05-23T18:12:29.011Z,15.20
2019-05-23T18:14:59.088Z,15.30
2019-05-23T18:17:31.361Z,15.20
2019-05-23T18:20:03.446Z,15.20
2019-05-23T18:22:34.656Z,15.20
2019-05-23T18:25:09.764Z,15.10
2019-05-23T18:27:40.514Z,15.10
2019-05-23T18:30:12.259Z,15.00
2019-05-23T18:32:42.095Z,15.00
2019-05-23T18:35:12.425Z,15.00
2019-05-23T18:37:42.205Z,15.00
2019-05-23T18:40:12.448Z,15.00
2019-05-23T18:42:42.796Z,15.10
2019-05-23T18:45:13.562Z,15.00
2019-05-23T18:47:44.166Z,14.90
2019-05-23T18:50:15.344Z,14.80
2019-05-23T18:52:45.086Z,14.90
2019-05-23T18:55:17.191Z,15.00
2019-05-23T18:57:46.985Z,15.00
2019-05-23T19:00:17.468Z,15.00
2019-05-23T19:02:47.689Z,15.10
2019-05-23T19:05:17.566Z,15.00
2019-05-23T19:07:47.256Z,14.90
2019-05-23T19:10:18.088Z,15.10
2019-05-23T19:12:48.994Z,15.00
2019-05-23T19:15:19.353Z,15.00
2019-05-23T19:17:49.664Z,15.00
2019-05-23T19:20:20.197Z,14.90
2019-05-23T19:22:50.171Z,15.00
2019-05-23T19:25:21.598Z,15.10
2019-05-23T19:27:51.495Z,15.10
2019-05-23T19:30:21.619Z,15.10
2019-05-23T19:32:51.864Z,15.10
2019-05-23T19:35:22.764Z,14.90
2019-05-23T19:37:52.967Z,14.90
2019-05-23T19:40:23.824Z,14.90
2019-05-23T19:42:53.613Z,15.00
2019-05-23T19:45:23.942Z,14.90
2019-05-23T19:47:54.036Z,14.70
2019-05-23T19:50:25.925Z,14.70
2019-05-23T19:52:56.509Z,14.70
2019-05-23T19:55:26.928Z,14.80
2019-05-23T19:57:56.885Z,14.80
2019-05-23T20:00:27.561Z,14.80
2019-05-23T20:02:59.023Z,14.80
2019-05-23T20:05:34.310Z,14.90
2019-05-23T20:08:04.872Z,14.80
2019-05-23T20:10:35.431Z,14.80
2019-05-23T20:13:06.131Z,14.70
2019-05-23T20:15:36.474Z,14.70
2019-05-23T20:18:07.855Z,14.70
2019-05-23T20:20:40.060Z,14.60
2019-05-23T20:23:10.253Z,14.50
2019-05-23T20:25:40.470Z,14.40
2019-05-23T20:28:10.804Z,14.60
2019-05-23T20:30:52.499Z,14.70
2019-05-23T20:33:22.548Z,14.80
2019-05-23T20:35:52.783Z,14.90
2019-05-23T20:38:23.254Z,14.90
2019-05-23T20:40:54.040Z,14.80
2019-05-23T20:43:23.653Z,14.60
2019-05-23T20:45:56.093Z,14.50
2019-05-23T20:48:26.096Z,14.60
2019-05-23T20:50:56.610Z,14.50
2019-05-23T20:53:26.559Z,14.60
2019-05-23T20:55:56.229Z,14.60
2019-05-23T20:58:28.025Z,14.60
2019-05-23T21:01:02.536Z,14.60
2019-05-23T21:03:35.487Z,14.70
2019-05-23T21:06:07.064Z,14.50
2019-05-23T21:08:37.390Z,14.60
2019-05-23T21:11:07.053Z,14.60
2019-05-23T21:13:36.755Z,14.60
2019-05-23T21:16:06.782Z,14.50
2019-05-23T21:18:36.563Z,14.40
2019-05-23T21:21:06.823Z,14.50
2019-05-23T21:23:37.417Z,14.50
2019-05-23T21:26:07.213Z,14.50
2019-05-23T21:28:37.248Z,14.50
2019-05-23T21:31:08.702Z,14.40
2019-05-23T21:33:38.419Z,14.30
2019-05-23T21:36:08.164Z,14.20
2019-05-23T21:38:37.988Z,14.20
2019-05-23T21:41:07.707Z,14.20
2019-05-23T21:43:37.453Z,14.10
2019-05-23T21:46:08.758Z,14.20
2019-05-23T21:48:40.349Z,14.00
2019-05-23T21:51:10.050Z,13.90
2019-05-23T21:53:40.213Z,14.00
2019-05-23T21:56:10.053Z,14.10
2019-05-23T21:58:39.876Z,14.10
2019-05-23T22:01:10.714Z,14.10
2019-05-23T22:03:51.118Z,14.10
2019-05-23T22:06:30.486Z,14.20
2019-05-23T22:09:01.924Z,14.10
2019-05-23T22:11:31.608Z,14.20
2019-05-23T22:14:01.255Z,14.00
2019-05-23T22:16:30.863Z,14.00
2019-05-23T22:19:00.555Z,14.10
2019-05-23T22:21:30.516Z,14.20
2019-05-23T22:24:00.329Z,14.10
2019-05-23T22:26:30.039Z,14.20
2019-05-23T22:29:00.467Z,14.20
2019-05-23T22:31:30.067Z,14.10
2019-05-23T22:34:20.089Z,14.10
2019-05-23T22:36:49.690Z,14.10
2019-05-23T22:39:19.686Z,14.00
2019-05-23T22:41:49.403Z,14.00
2019-05-23T22:44:19.348Z,14.00
2019-05-23T22:46:49.132Z,14.00
2019-05-23T22:49:18.862Z,13.90
2019-05-23T22:51:48.468Z,13.90
2019-05-23T22:54:18.088Z,13.90
2019-05-23T22:56:47.672Z,13.80
2019-05-23T22:59:17.309Z,13.70
2019-05-23T23:01:47.051Z,13.70
2019-05-23T23:04:17.169Z,13.70
2019-05-23T23:06:46.708Z,13.70
2019-05-23T23:09:16.325Z,13.80
2019-05-23T23:11:46.278Z,13.80
2019-05-23T23:14:15.889Z,13.60
2019-05-23T23:16:46.293Z,13.70
2019-05-23T23:19:16.125Z,13.70
2019-05-23T23:21:45.679Z,13.70
2019-05-23T23:24:15.214Z,13.60
2019-05-23T23:26:45.769Z,13.80
2019-05-23T23:29:15.403Z,13.80
2019-05-23T23:31:45.026Z,13.80
2019-05-23T23:34:14.758Z,13.70
2019-05-23T23:36:44.304Z,13.70
2019-05-23T23:39:14.175Z,13.70
2019-05-23T23:41:43.767Z,13.60
2019-05-23T23:44:13.708Z,13.40
2019-05-23T23:47:00.954Z,13.40
2019-05-23T23:49:48.429Z,13.40
2019-05-23T23:52:35.577Z,13.30
2019-05-23T23:55:24.864Z,13.40
2019-05-23T23:57:59.856Z,13.50
